Time;durP1;ratioP1;P1;durP2;ratioP2;P2;SDS_P1;SDS_P2;PMS_P1;PMS_P2;Temp;Humidity;BMP_temperature;BMP_pressure;BME280_temperature;BME280_humidity;BME280_pressure;Samples;Min_cycle;Max_cycle;Signal;HPM_P1;HPM_P2
2023/07/26 00:00:27;;;;;;;2.15;1.30;;;;;;;15.57;65.46;98241.56;4992613;28;20029;-82
2023/07/26 00:02:52;;;;;;;5.95;1.70;;;;;;;15.57;65.21;98241.56;5016969;28;20044;-82
2023/07/26 00:05:18;;;;;;;4.88;1.63;;;;;;;15.51;65.04;98237.34;4999914;28;20067;-82
2023/07/26 00:07:43;;;;;;;3.25;1.42;;;;;;;15.49;65.04;98223.38;5025750;28;20033;-83
2023/07/26 00:10:09;;;;;;;3.50;1.45;;;;;;;15.52;65.19;98249.69;5003347;28;20033;-82
2023/07/26 00:12:34;;;;;;;3.42;1.65;;;;;;;15.44;65.09;98234.25;5022494;28;20033;-82
2023/07/26 00:15:00;;;;;;;2.80;1.55;;;;;;;15.47;65.34;98247.88;5024857;28;20033;-82
2023/07/26 00:17:25;;;;;;;4.22;1.55;;;;;;;15.23;65.64;98236.41;5007754;28;20453;-82
2023/07/26 00:19:51;;;;;;;2.88;1.50;;;;;;;15.37;65.63;98249.91;4993753;28;20026;-82
2023/07/26 00:22:16;;;;;;;2.75;1.42;;;;;;;15.36;65.44;98251.81;5026425;28;20417;-82
2023/07/26 00:24:41;;;;;;;6.18;1.45;;;;;;;15.32;65.61;98237.34;5024748;28;20063;-83
2023/07/26 00:27:07;;;;;;;4.45;1.40;;;;;;;15.42;65.43;98257.91;4994519;28;20030;-82
2023/07/26 00:29:32;;;;;;;5.57;1.60;;;;;;;15.38;65.55;98241.56;5025334;28;20037;-82
2023/07/26 00:31:57;;;;;;;8.60;1.95;;;;;;;15.44;65.14;98247.69;5028203;28;20489;-82
2023/07/26 00:34:23;;;;;;;6.40;1.80;;;;;;;15.44;65.62;98258.44;5013372;28;20030;-82
2023/07/26 00:36:48;;;;;;;1.73;1.55;;;;;;;15.36;65.71;98264.44;5026854;28;20029;-82
2023/07/26 00:39:14;;;;;;;3.72;1.63;;;;;;;15.46;65.00;98258.94;5007889;28;20466;-82
2023/07/26 00:41:39;;;;;;;3.20;1.77;;;;;;;15.19;65.85;98266.88;5025111;28;20052;-82
2023/07/26 00:44:05;;;;;;;2.72;1.60;;;;;;;15.32;65.58;98258.06;5013019;28;20489;-82
2023/07/26 00:46:30;;;;;;;3.22;1.33;;;;;;;15.21;66.00;98256.63;5027039;28;20061;-82
2023/07/26 00:48:57;;;;;;;4.50;2.00;;;;;;;15.31;65.43;98259.94;5009215;28;20038;-82
2023/07/26 00:51:23;;;;;;;2.00;1.70;;;;;;;15.27;65.60;98261.63;5032381;28;20074;-82
2023/07/26 00:53:49;;;;;;;6.40;1.63;;;;;;;15.31;65.21;98278.00;5027365;28;20396;-82
2023/07/26 00:56:14;;;;;;;4.13;1.90;;;;;;;15.30;65.78;98271.00;5043817;28;20032;-82
2023/07/26 00:58:40;;;;;;;2.80;1.75;;;;;;;15.18;65.68;98254.53;5032078;28;20434;-82
2023/07/26 01:01:06;;;;;;;3.00;1.90;;;;;;;15.12;65.59;98259.19;5027270;28;20512;-82
2023/07/26 01:03:31;;;;;;;3.13;1.75;;;;;;;15.12;65.24;98255.69;5017722;28;20078;-82
2023/07/26 01:06:15;;;;;;;2.85;1.90;;;;;;;15.18;65.83;98274.13;5015888;28;20621;-82
2023/07/26 01:08:51;;;;;;;3.80;1.60;;;;;;;14.89;66.02;98273.50;5034135;28;20118;-82
2023/07/26 01:11:27;;;;;;;4.63;1.48;;;;;;;14.75;66.35;98256.47;5033211;28;20079;-82
2023/07/26 01:14:00;;;;;;;;;;;;;;;15.10;65.85;98280.16;5025387;28;20213;-82
2023/07/26 01:16:27;;;;;;;4.10;1.60;;;;;;;15.00;66.40;98283.78;5033139;28;20340;-82
2023/07/26 01:18:53;;;;;;;2.88;1.63;;;;;;;14.99;66.43;98279.53;5010395;28;20410;-82
2023/07/26 01:21:18;;;;;;;6.40;2.00;;;;;;;14.48;67.49;98285.84;5038953;28;20415;-82
2023/07/26 01:23:43;;;;;;;5.25;1.77;;;;;;;14.39;67.45;98260.72;5030904;28;20513;-82
2023/07/26 01:26:09;;;;;;;5.03;1.77;;;;;;;14.89;66.63;98281.56;5010629;28;20176;-82
2023/07/26 01:28:34;;;;;;;8.15;2.20;;;;;;;14.82;66.20;98260.44;5034725;28;20108;-82
2023/07/26 01:31:01;;;;;;;4.90;1.77;;;;;;;14.86;66.20;98266.81;5010597;28;20041;-82
2023/07/26 01:33:30;;;;;;;6.57;2.20;;;;;;;14.90;66.12;98286.63;5033914;28;20033;-82
2023/07/26 01:35:57;;;;;;;5.50;1.85;;;;;;;14.30;67.72;98273.97;5039399;28;20054;-82
2023/07/26 01:38:23;;;;;;;2.03;1.80;;;;;;;14.36;67.73;98262.09;5030834;28;20463;-82
2023/07/26 01:40:49;;;;;;;3.25;2.03;;;;;;;14.14;68.00;98264.47;5009689;28;20040;-82
2023/07/26 01:43:15;;;;;;;2.92;1.67;;;;;;;14.60;66.61;98283.53;5012242;28;20036;-82
2023/07/26 01:45:40;;;;;;;3.17;1.63;;;;;;;14.42;67.27;98266.31;5031627;28;20029;-82
2023/07/26 01:48:06;;;;;;;4.55;2.15;;;;;;;14.60;66.84;98267.44;5019130;28;20053;-82
2023/07/26 01:50:31;;;;;;;5.57;1.92;;;;;;;14.57;66.95;98276.84;5030742;28;20134;-82
2023/07/26 01:52:56;;;;;;;5.45;2.13;;;;;;;14.66;66.60;98296.63;5011798;28;20037;-82
2023/07/26 01:55:22;;;;;;;1.80;1.70;;;;;;;14.76;66.40;98287.66;5016949;28;20124;-82
2023/07/26 01:57:47;;;;;;;3.38;1.85;;;;;;;14.55;66.75;98291.66;5029811;28;20034;-82
2023/07/26 02:00:12;;;;;;;1.85;1.50;;;;;;;14.22;67.68;98278.06;5028671;28;20532;-82
2023/07/26 02:02:38;;;;;;;3.90;1.75;;;;;;;14.35;67.85;98298.06;5029148;28;20477;-82
2023/07/26 02:05:03;;;;;;;3.95;1.70;;;;;;;14.56;66.60;98291.38;5035069;28;20025;-82
2023/07/26 02:07:29;;;;;;;3.67;1.70;;;;;;;14.39;67.17;98287.56;5003339;28;20029;-82
2023/07/26 02:09:54;;;;;;;3.40;1.80;;;;;;;14.56;66.35;98286.03;5014883;28;20029;-82
2023/07/26 02:12:20;;;;;;;2.08;1.70;;;;;;;14.68;66.36;98297.13;5014439;28;20124;-82
2023/07/26 02:14:45;;;;;;;2.83;1.40;;;;;;;14.54;66.93;98300.81;5029118;28;20022;-82
2023/07/26 02:17:10;;;;;;;6.32;2.13;;;;;;;14.38;67.03;98294.81;5026094;28;20451;-82
2023/07/26 02:19:36;;;;;;;2.35;1.80;;;;;;;14.58;66.55;98283.84;5014065;28;20484;-82
2023/07/26 02:22:01;;;;;;;6.13;1.85;;;;;;;14.65;66.33;98305.78;5019249;28;20450;-82
2023/07/26 02:24:27;;;;;;;2.53;1.65;;;;;;;14.60;66.31;98295.09;5033931;28;20037;-82
2023/07/26 02:26:52;;;;;;;2.08;1.83;;;;;;;14.62;66.29;98302.84;5014882;28;20060;-82
2023/07/26 02:29:18;;;;;;;5.35;1.63;;;;;;;14.58;66.19;98293.78;5030801;28;20116;-82
2023/07/26 02:31:43;;;;;;;4.57;2.60;;;;;;;14.67;65.98;98300.13;5015528;28;20045;-82
2023/07/26 02:34:08;;;;;;;4.85;2.10;;;;;;;14.44;66.63;98296.34;5010741;28;20396;-82
2023/07/26 02:36:34;;;;;;;2.38;1.65;;;;;;;14.46;66.33;98301.47;4999193;28;20025;-82
2023/07/26 02:38:59;;;;;;;2.03;1.60;;;;;;;14.46;66.61;98299.56;5037584;28;20037;-82
2023/07/26 02:41:25;;;;;;;2.85;1.55;;;;;;;14.45;66.70;98306.03;5015287;28;20065;-82
2023/07/26 02:43:50;;;;;;;6.68;1.67;;;;;;;14.44;66.07;98300.94;5014382;28;20349;-82
2023/07/26 02:46:15;;;;;;;2.42;1.60;;;;;;;14.59;66.38;98308.81;5029726;28;20474;-82
2023/07/26 02:48:41;;;;;;;8.98;1.80;;;;;;;14.50;66.36;98313.22;5032226;28;20088;-82
2023/07/26 02:51:06;;;;;;;2.53;1.70;;;;;;;14.34;66.54;98290.31;5038478;28;20468;-82
2023/07/26 02:53:32;;;;;;;6.95;2.72;;;;;;;14.39;66.21;98315.22;5041940;28;20456;-83
2023/07/26 02:55:57;;;;;;;2.75;1.73;;;;;;;14.36;66.69;98313.09;4994206;28;20030;-82
2023/07/26 02:58:23;;;;;;;7.63;1.83;;;;;;;14.26;66.69;98307.81;5039083;28;20103;-82
2023/07/26 03:00:52;;;;;;;3.97;2.40;;;;;;;14.24;66.79;98312.69;5033646;28;20036;-82
2023/07/26 03:03:17;;;;;;;3.20;2.00;;;;;;;14.21;66.81;98307.88;5014493;28;20036;-83
2023/07/26 03:05:43;;;;;;;3.10;1.80;;;;;;;14.22;66.93;98312.94;5025920;28;20048;-83
2023/07/26 03:08:08;;;;;;;5.88;2.35;;;;;;;14.24;66.87;98310.00;5013408;28;20030;-82
2023/07/26 03:10:34;;;;;;;2.50;1.92;;;;;;;14.33;66.48;98316.34;5029898;28;20114;-82
2023/07/26 03:12:59;;;;;;;2.70;1.55;;;;;;;14.24;66.54;98320.75;5035052;28;20033;-82
2023/07/26 03:15:24;;;;;;;2.45;2.00;;;;;;;14.10;66.66;98306.38;5028967;28;20121;-82
2023/07/26 03:17:50;;;;;;;4.78;2.30;;;;;;;14.23;66.66;98319.13;5027082;28;20033;-82
2023/07/26 03:20:15;;;;;;;3.50;1.73;;;;;;;14.15;66.85;98322.44;5026401;28;20420;-82
2023/07/26 03:22:40;;;;;;;3.83;1.77;;;;;;;14.18;67.06;98316.47;5040457;28;20044;-82
2023/07/26 03:25:06;;;;;;;1.80;1.67;;;;;;;14.05;66.79;98328.69;4992986;28;20120;-82
2023/07/26 03:27:31;;;;;;;1.90;1.52;;;;;;;14.13;66.98;98317.34;5034909;28;20460;-82
2023/07/26 03:29:57;;;;;;;3.90;2.00;;;;;;;14.03;67.00;98312.06;5026087;28;20516;-82
2023/07/26 03:32:22;;;;;;;5.05;1.75;;;;;;;14.03;66.75;98319.31;5032282;28;20393;-82
2023/07/26 03:34:47;;;;;;;2.42;1.90;;;;;;;14.06;67.14;98338.34;5009499;28;20124;-82
2023/07/26 03:37:13;;;;;;;3.03;2.10;;;;;;;13.85;67.94;98331.56;5031678;28;20029;-82
2023/07/26 03:39:38;;;;;;;2.90;1.83;;;;;;;13.96;67.33;98316.97;5009650;28;20037;-82
2023/07/26 03:42:04;;;;;;;1.77;1.50;;;;;;;14.07;67.25;98334.56;5018683;28;20034;-82
2023/07/26 03:44:29;;;;;;;2.38;1.85;;;;;;;14.15;66.78;98333.19;5013919;28;20037;-82
2023/07/26 03:46:54;;;;;;;2.40;1.65;;;;;;;14.05;66.64;98326.00;5027480;28;20033;-82
2023/07/26 03:49:20;;;;;;;4.93;2.05;;;;;;;14.11;67.00;98346.34;4996510;28;20416;-82
2023/07/26 03:51:45;;;;;;;1.75;1.42;;;;;;;14.09;66.61;98326.22;5028842;28;20037;-82
2023/07/26 03:54:10;;;;;;;1.50;1.40;;;;;;;14.20;66.85;98338.47;5011897;28;20033;-82
2023/07/26 03:56:36;;;;;;;4.72;2.13;;;;;;;14.08;66.67;98316.59;5027209;28;20041;-82
2023/07/26 03:59:02;;;;;;;4.10;1.75;;;;;;;14.14;66.85;98343.09;5008963;28;20095;-82
2023/07/26 04:01:27;;;;;;;3.30;1.45;;;;;;;14.07;66.80;98325.72;5023511;28;20362;-82
2023/07/26 04:03:52;;;;;;;6.18;1.65;;;;;;;14.19;66.97;98337.69;4994635;28;20033;-82
2023/07/26 04:06:18;;;;;;;1.90;1.50;;;;;;;14.13;67.13;98330.75;5026470;28;20172;-82
2023/07/26 04:08:43;;;;;;;2.70;1.70;;;;;;;14.17;67.13;98333.69;5019858;28;20034;-82
2023/07/26 04:11:11;;;;;;;1.50;1.35;;;;;;;14.09;67.57;98318.19;5034836;28;20045;-82
2023/07/26 04:13:36;;;;;;;1.52;1.40;;;;;;;14.05;67.30;98323.31;5027176;28;20112;-81
2023/07/26 04:16:11;;;;;;;2.65;1.80;;;;;;;14.00;67.53;98317.22;5027147;28;20210;-82
2023/07/26 04:18:37;;;;;;;5.87;3.17;;;;;;;14.15;67.15;98327.81;5026658;28;20026;-82
2023/07/26 04:21:02;;;;;;;3.63;1.63;;;;;;;14.09;68.01;98348.50;4996078;28;20374;-82
2023/07/26 04:23:27;;;;;;;5.82;2.00;;;;;;;14.20;67.79;98343.84;5027492;28;20064;-81
2023/07/26 04:25:53;;;;;;;3.20;2.10;;;;;;;14.08;67.85;98332.69;5023688;28;20501;-82
2023/07/26 04:28:18;;;;;;;2.60;1.83;;;;;;;14.20;67.83;98330.41;5013801;28;20392;-83
2023/07/26 04:30:44;;;;;;;3.80;1.77;;;;;;;14.19;68.02;98337.69;5011661;28;20170;-82
2023/07/26 04:33:09;;;;;;;3.00;1.70;;;;;;;14.13;67.79;98338.81;5017588;28;20107;-81
2023/07/26 04:35:34;;;;;;;3.50;1.63;;;;;;;14.31;67.89;98355.31;5017393;28;20039;-82
2023/07/26 04:38:00;;;;;;;7.38;1.88;;;;;;;14.04;69.16;98353.91;5021278;28;20037;-82
2023/07/26 04:40:25;;;;;;;4.47;2.00;;;;;;;13.57;70.47;98344.94;5029975;28;20108;-82
2023/07/26 04:42:50;;;;;;;2.88;1.70;;;;;;;13.96;69.13;98329.56;5027291;28;20036;-82
2023/07/26 04:45:16;;;;;;;3.78;1.90;;;;;;;14.11;68.43;98340.97;5025838;28;20040;-82
2023/07/26 04:47:41;;;;;;;3.15;1.88;;;;;;;14.05;69.08;98346.66;5022279;28;20033;-81
2023/07/26 04:50:07;;;;;;;2.40;1.65;;;;;;;14.02;69.42;98355.31;4988717;28;20413;-82
2023/07/26 04:52:37;;;;;;;3.00;2.25;;;;;;;14.32;68.58;98364.97;5024714;28;20122;-81
2023/07/26 04:55:04;;;;;;;2.90;1.92;;;;;;;14.25;68.75;98366.06;5033484;28;20034;-82
2023/07/26 04:57:29;;;;;;;4.30;1.98;;;;;;;14.37;68.32;98376.47;5022232;28;20037;-82
2023/07/26 04:59:54;;;;;;;5.22;2.13;;;;;;;14.24;68.45;98350.25;5030520;28;20398;-83
2023/07/26 05:02:20;;;;;;;1.60;1.50;;;;;;;14.36;68.27;98366.81;5029109;28;20037;-82
2023/07/26 05:04:45;;;;;;;4.72;2.35;;;;;;;14.37;68.10;98364.94;5026112;28;20044;-82
2023/07/26 05:07:10;;;;;;;8.05;2.28;;;;;;;14.41;68.14;98374.81;5011952;28;20234;-82
2023/07/26 05:09:36;;;;;;;4.93;2.03;;;;;;;14.37;68.14;98370.28;5015969;28;20108;-83
2023/07/26 05:12:01;;;;;;;2.30;1.67;;;;;;;14.41;68.13;98374.81;5009201;28;20554;-82
2023/07/26 05:14:26;;;;;;;5.13;2.17;;;;;;;14.35;68.80;98386.66;5007642;28;20036;-82
2023/07/26 05:16:52;;;;;;;4.53;2.10;;;;;;;14.33;68.46;98378.09;5023612;28;20034;-81
2023/07/26 05:19:17;;;;;;;2.50;2.03;;;;;;;14.27;68.76;98373.84;5011949;28;20027;-82
2023/07/26 05:21:43;;;;;;;3.72;1.88;;;;;;;14.42;68.42;98386.34;5012461;28;20021;-81
2023/07/26 05:24:08;;;;;;;5.82;2.13;;;;;;;14.40;68.05;98365.16;5027610;28;20041;-81
2023/07/26 05:26:33;;;;;;;5.55;2.45;;;;;;;14.21;69.50;98383.84;5019433;28;20099;-81
2023/07/26 05:28:59;;;;;;;3.22;1.88;;;;;;;14.30;69.45;98389.44;5020132;28;20041;-81
2023/07/26 05:31:24;;;;;;;4.15;2.50;;;;;;;14.36;68.74;98379.41;5020579;28;20053;-81
2023/07/26 05:33:49;;;;;;;2.38;1.92;;;;;;;14.39;69.22;98381.56;5023388;28;20062;-82
2023/07/26 05:36:15;;;;;;;2.78;2.20;;;;;;;14.52;68.78;98394.31;5012782;28;20034;-81
2023/07/26 05:38:40;;;;;;;5.03;2.33;;;;;;;14.50;68.96;98381.16;5009096;28;20030;-82
2023/07/26 05:41:06;;;;;;;3.38;2.58;;;;;;;14.51;69.34;98388.13;5030725;28;20160;-82
2023/07/26 05:43:32;;;;;;;3.22;1.70;;;;;;;14.53;68.96;98391.31;5028194;28;20417;-82
2023/07/26 05:45:57;;;;;;;10.35;2.17;;;;;;;14.47;69.34;98381.72;5031831;28;20040;-82
2023/07/26 05:48:22;;;;;;;2.90;1.95;;;;;;;14.56;69.43;98382.72;5020323;28;20036;-82
2023/07/26 05:50:48;;;;;;;4.13;1.98;;;;;;;14.49;69.55;98371.50;5028831;28;20091;-82
2023/07/26 05:53:14;;;;;;;4.45;2.05;;;;;;;14.58;69.69;98366.28;5022400;28;20041;-81
2023/07/26 05:55:39;;;;;;;2.05;1.48;;;;;;;14.48;69.71;98371.78;5022187;28;20072;-82
2023/07/26 05:58:05;;;;;;;5.68;1.77;;;;;;;14.63;69.98;98380.47;5031903;28;20032;-82
2023/07/26 06:00:31;;;;;;;3.28;2.08;;;;;;;14.67;70.07;98368.09;5026610;28;20068;-81
2023/07/26 06:02:56;;;;;;;2.80;1.65;;;;;;;14.73;70.28;98382.25;5026341;28;20041;-81
2023/07/26 06:05:22;;;;;;;5.53;2.28;;;;;;;14.83;69.96;98390.19;5024361;28;20088;-81
2023/07/26 06:07:49;;;;;;;4.05;2.30;;;;;;;14.27;70.39;98314.78;5029422;28;20033;-81
2023/07/26 06:10:15;;;;;;;2.05;1.85;;;;;;;14.89;69.71;98397.91;5023246;28;20059;-82
2023/07/26 06:12:40;;;;;;;3.00;2.05;;;;;;;14.82;70.01;98383.22;5024708;28;20034;-81
2023/07/26 06:15:06;;;;;;;3.22;1.73;;;;;;;14.85;70.19;98391.50;5031915;28;20409;-82
2023/07/26 06:17:31;;;;;;;2.60;1.80;;;;;;;14.89;69.65;98395.22;5026140;28;20076;-81
2023/07/26 06:19:57;;;;;;;3.72;1.77;;;;;;;14.99;69.14;98397.78;5008078;28;20064;-81
2023/07/26 06:22:22;;;;;;;2.45;1.90;;;;;;;14.91;69.03;98381.50;5027479;28;20041;-82
2023/07/26 06:24:47;;;;;;;3.90;2.10;;;;;;;14.84;69.14;98372.97;5021957;28;20038;-82
2023/07/26 06:27:13;;;;;;;3.88;1.60;;;;;;;14.87;69.20;98385.84;5031067;28;20128;-82
2023/07/26 06:29:38;;;;;;;4.88;2.05;;;;;;;14.80;69.46;98401.50;5008852;28;20064;-81
2023/07/26 06:32:04;;;;;;;4.47;1.92;;;;;;;14.80;69.40;98415.75;5031741;28;20026;-81
2023/07/26 06:34:29;;;;;;;5.88;1.83;;;;;;;14.77;69.20;98418.19;5011148;28;20033;-82
2023/07/26 06:36:55;;;;;;;5.70;2.13;;;;;;;14.74;69.02;98433.00;5026964;28;20048;-81
2023/07/26 06:39:20;;;;;;;4.63;2.38;;;;;;;14.76;69.69;98457.72;5011983;28;20173;-82
2023/07/26 06:41:46;;;;;;;3.83;1.70;;;;;;;14.33;71.61;98461.31;5035082;28;20032;-82
2023/07/26 06:44:11;;;;;;;8.38;2.28;;;;;;;14.21;72.43;98453.63;5031640;28;20059;-81
2023/07/26 06:46:38;;;;;;;3.05;1.98;;;;;;;14.45;71.98;98450.22;5026525;28;20037;-81
2023/07/26 06:49:04;;;;;;;6.10;1.95;;;;;;;14.26;72.29;98409.84;5028988;28;20026;-81
2023/07/26 06:51:29;;;;;;;3.55;1.92;;;;;;;14.42;72.03;98448.91;5023827;28;20037;-81
2023/07/26 06:53:55;;;;;;;2.47;2.10;;;;;;;14.44;71.91;98441.34;5015941;28;20045;-81
2023/07/26 06:56:20;;;;;;;2.05;1.85;;;;;;;14.25;72.53;98429.69;5009654;28;20033;-81
2023/07/26 06:58:45;;;;;;;2.72;2.45;;;;;;;14.36;72.75;98441.16;5024706;28;20033;-81
2023/07/26 07:01:17;;;;;;;4.93;2.10;;;;;;;14.38;72.53;98433.63;5023468;28;20476;-82
2023/07/26 07:03:43;;;;;;;2.47;1.73;;;;;;;14.39;72.71;98456.72;5022296;28;20026;-81
2023/07/26 07:06:08;;;;;;;2.28;2.03;;;;;;;14.41;73.33;98452.69;5028619;28;20044;-81
2023/07/26 07:08:33;;;;;;;2.80;2.42;;;;;;;14.05;74.71;98443.28;5026478;28;20674;-81
2023/07/26 07:10:59;;;;;;;2.35;2.05;;;;;;;14.04;75.11;98437.09;5026987;28;20842;-82
2023/07/26 07:13:24;;;;;;;4.80;2.47;;;;;;;14.18;75.08;98448.81;5021448;28;20418;-81
2023/07/26 07:15:50;;;;;;;3.47;2.20;;;;;;;13.97;76.46;98449.25;4991073;28;20136;-81
2023/07/26 07:18:15;;;;;;;2.72;2.40;;;;;;;14.37;75.11;98457.03;5008625;28;20052;-81
2023/07/26 07:20:41;;;;;;;3.83;2.60;;;;;;;14.45;74.13;98472.50;5009827;28;20522;-81
2023/07/26 07:23:06;;;;;;;4.53;1.90;;;;;;;14.63;73.77;98473.69;5025662;28;20021;-81
2023/07/26 07:25:31;;;;;;;5.53;2.75;;;;;;;14.68;74.38;98469.06;5019373;28;20126;-81
2023/07/26 07:27:57;;;;;;;2.97;2.40;;;;;;;14.66;73.46;98454.31;5023265;28;22223;-82
2023/07/26 07:30:22;;;;;;;4.85;2.35;;;;;;;14.62;74.50;98453.28;5009479;28;20458;-82
2023/07/26 07:32:47;;;;;;;3.55;2.28;;;;;;;14.91;74.06;98470.97;4993569;28;20033;-82
2023/07/26 07:35:13;;;;;;;4.10;2.88;;;;;;;14.70;75.17;98452.69;5029688;28;20081;-81
2023/07/26 07:37:38;;;;;;;2.80;2.08;;;;;;;15.25;72.66;98468.16;5017660;28;20128;-80
2023/07/26 07:40:05;;;;;;;5.22;2.30;;;;;;;15.18;73.06;98472.28;5022182;28;20025;-81
2023/07/26 07:42:31;;;;;;;4.60;2.25;;;;;;;15.18;72.83;98450.78;5009329;28;20030;-80
2023/07/26 07:44:56;;;;;;;6.13;2.38;;;;;;;15.21;73.61;98466.31;5007074;28;20036;-81
2023/07/26 07:47:21;;;;;;;4.25;2.08;;;;;;;15.40;72.73;98462.59;5024121;28;20067;-81
2023/07/26 07:49:47;;;;;;;4.28;2.10;;;;;;;15.50;72.86;98469.75;5002835;28;20038;-80
2023/07/26 07:52:12;;;;;;;3.22;2.17;;;;;;;15.25;73.06;98443.97;5019638;28;20091;-80
2023/07/26 07:54:37;;;;;;;2.70;2.42;;;;;;;15.55;72.88;98461.63;5027913;28;20059;-81
2023/07/26 07:57:03;;;;;;;3.80;2.92;;;;;;;15.45;73.79;98459.88;5009004;28;20030;-80
2023/07/26 07:59:29;;;;;;;3.67;2.53;;;;;;;15.52;72.29;98446.88;5019306;28;20036;-80
2023/07/26 08:01:58;;;;;;;8.85;2.55;;;;;;;15.59;72.15;98463.47;5040113;28;20081;-81
2023/07/26 08:04:24;;;;;;;3.15;2.53;;;;;;;15.70;71.83;98456.03;5050792;28;20038;-82
2023/07/26 08:06:50;;;;;;;2.70;2.10;;;;;;;15.71;71.75;98458.44;5055421;28;20017;-81
2023/07/26 08:09:15;;;;;;;2.22;2.00;;;;;;;15.48;71.56;98421.66;5050390;28;20018;-81
2023/07/26 08:11:41;;;;;;;3.53;2.25;;;;;;;15.56;72.09;98453.25;5054011;28;20025;-82
2023/07/26 08:14:06;;;;;;;11.93;3.42;;;;;;;15.30;71.04;98411.63;5056168;28;20069;-82
2023/07/26 08:16:32;;;;;;;9.93;3.03;;;;;;;15.76;70.69;98468.31;5019768;28;20030;-82
2023/07/26 08:19:01;;;;;;;4.65;2.28;;;;;;;15.28;71.38;98402.25;5052046;28;20021;-83
2023/07/26 08:21:26;;;;;;;3.78;2.50;;;;;;;15.35;72.09;98405.38;5060264;28;20093;-83
2023/07/26 08:23:52;;;;;;;7.18;2.55;;;;;;;15.87;70.80;98452.81;5055268;28;20034;-82
2023/07/26 08:26:17;;;;;;;8.05;2.50;;;;;;;15.83;71.34;98465.28;5035821;28;20033;-82
2023/07/26 08:28:42;;;;;;;2.78;1.92;;;;;;;15.83;70.92;98444.53;5044069;28;20160;-82
2023/07/26 08:31:08;;;;;;;4.38;2.40;;;;;;;15.45;71.30;98397.19;5025432;28;20087;-82
2023/07/26 08:33:33;;;;;;;3.25;2.20;;;;;;;15.86;71.16;98456.63;4999815;28;21494;-82
2023/07/26 08:35:59;;;;;;;4.75;2.28;;;;;;;15.70;71.22;98439.91;5032060;28;20033;-82
2023/07/26 08:38:24;;;;;;;4.25;2.47;;;;;;;15.55;72.62;98454.34;5030934;28;20029;-82
2023/07/26 08:40:50;;;;;;;3.33;2.20;;;;;;;15.43;73.13;98437.00;5029689;28;20056;-82
2023/07/26 08:43:18;;;;;;;5.78;2.78;;;;;;;15.44;72.75;98427.91;5034664;28;20025;-82
2023/07/26 08:45:44;;;;;;;3.85;2.42;;;;;;;15.65;71.56;98439.97;5022361;28;20025;-82
2023/07/26 08:48:10;;;;;;;7.18;2.42;;;;;;;15.73;71.29;98453.56;5044971;28;20025;-82
2023/07/26 08:50:38;;;;;;;4.95;2.40;;;;;;;15.69;71.52;98435.59;5040702;28;20032;-82
2023/07/26 08:53:07;;;;;;;2.63;2.40;;;;;;;15.82;70.94;98451.00;5014035;28;20144;-82
2023/07/26 08:55:33;;;;;;;1.92;1.83;;;;;;;15.67;70.83;98437.78;5032271;28;20033;-82
2023/07/26 08:57:59;;;;;;;4.22;2.33;;;;;;;15.70;70.53;98437.22;5004229;28;20052;-81
2023/07/26 09:00:29;;;;;;;2.83;2.28;;;;;;;15.67;71.60;98452.03;5024064;28;20089;-81
2023/07/26 09:02:59;;;;;;;1.80;1.70;;;;;;;15.82;70.94;98455.59;5024204;28;20026;-82
2023/07/26 09:05:25;;;;;;;5.90;2.22;;;;;;;15.92;69.66;98437.41;5028861;28;20032;-82
2023/07/26 09:07:51;;;;;;;2.17;1.85;;;;;;;15.93;69.40;98436.31;5012612;28;20049;-81
2023/07/26 09:10:28;;;;;;;2.67;2.10;;;;;;;15.87;69.64;98432.09;5032159;28;20063;-83
2023/07/26 09:13:15;;;;;;;2.60;2.17;;;;;;;15.81;68.22;98422.50;5041451;28;20446;-82
2023/07/26 09:15:44;;;;;;;4.68;3.00;;;;;;;15.70;69.05;98432.59;5038159;28;20036;-82
2023/07/26 09:18:14;;;;;;;3.83;2.60;;;;;;;15.74;68.22;98400.53;5030091;28;20263;-82
2023/07/26 09:20:40;;;;;;;1.83;1.73;;;;;;;15.71;68.11;98391.16;5045903;28;20021;-83
2023/07/26 09:23:08;;;;;;;3.40;2.13;;;;;;;15.97;68.60;98448.09;5045537;28;20056;-82
2023/07/26 09:25:42;;;;;;;4.05;2.28;;;;;;;15.77;69.00;98397.25;5057768;28;20034;-82
2023/07/26 09:28:13;;;;;;;3.00;2.33;;;;;;;16.31;67.81;98445.94;5070682;28;20025;-82
2023/07/26 09:30:45;;;;;;;2.40;2.20;;;;;;;16.32;67.41;98452.91;5050278;28;20037;-82
2023/07/26 09:33:12;;;;;;;4.05;2.58;;;;;;;15.82;68.04;98385.59;5059285;28;20021;-82
2023/07/26 09:35:45;;;;;;;3.72;2.08;;;;;;;15.69;67.31;98344.91;5048634;28;20033;-82
2023/07/26 09:38:23;;;;;;;2.90;2.60;;;;;;;15.94;66.92;98383.28;5052320;28;20017;-82
2023/07/26 09:40:48;;;;;;;4.50;2.15;;;;;;;16.32;66.58;98420.59;5027619;28;20060;-82
2023/07/26 09:43:28;;;;;;;3.53;2.17;;;;;;;16.40;66.96;98421.81;5009324;28;20033;-82
2023/07/26 09:46:01;;;;;;;2.92;2.20;;;;;;;16.45;66.59;98416.31;5043830;28;20032;-83
2023/07/26 09:48:26;;;;;;;2.95;2.10;;;;;;;16.62;66.93;98437.34;5043544;28;20037;-83
2023/07/26 09:50:54;;;;;;;4.35;2.28;;;;;;;16.56;66.19;98422.34;5023207;28;20034;-82
2023/07/26 09:53:22;;;;;;;2.78;2.55;;;;;;;16.55;65.50;98415.38;5024391;28;20043;-82
2023/07/26 09:55:49;;;;;;;2.78;2.40;;;;;;;16.46;65.86;98418.72;5023326;28;20048;-82
2023/07/26 09:58:17;;;;;;;2.85;2.05;;;;;;;16.62;65.47;98429.25;5029312;28;20025;-82
2023/07/26 10:00:44;;;;;;;2.50;2.10;;;;;;;16.50;65.53;98413.56;5044318;28;20089;-82
2023/07/26 10:03:13;;;;;;;2.47;2.08;;;;;;;16.68;64.75;98415.38;5006864;28;20037;-82
2023/07/26 10:05:46;;;;;;;2.33;2.10;;;;;;;16.74;64.48;98426.88;5040575;28;20064;-83
2023/07/26 10:08:12;;;;;;;2.00;1.90;;;;;;;16.74;64.91;98400.72;5034982;28;20041;-82
2023/07/26 10:10:41;;;;;;;5.07;2.53;;;;;;;17.01;64.46;98419.59;5059318;28;20026;-82
2023/07/26 10:13:09;;;;;;;2.47;2.20;;;;;;;17.03;64.79;98411.19;5052826;28;20033;-82
2023/07/26 10:15:36;;;;;;;3.83;1.90;;;;;;;16.95;64.50;98360.69;5053339;28;20088;-81
2023/07/26 10:18:01;;;;;;;3.03;2.25;;;;;;;17.10;63.87;98398.91;5057705;28;20625;-81
2023/07/26 10:20:27;;;;;;;4.45;2.40;;;;;;;17.36;63.05;98399.19;5079760;22;20039;-80
2023/07/26 10:22:55;;;;;;;3.15;2.13;;;;;;;17.45;64.04;98399.25;5065735;28;20477;-77
2023/07/26 10:25:21;;;;;;;2.78;1.70;;;;;;;17.49;62.92;98395.66;5063559;28;20043;-76
2023/07/26 10:27:47;;;;;;;3.40;2.05;;;;;;;17.62;62.28;98385.94;5064634;28;20477;-78
2023/07/26 10:30:22;;;;;;;3.25;2.25;;;;;;;17.78;60.89;98384.47;5048189;28;20040;-77
2023/07/26 10:32:48;;;;;;;2.20;2.00;;;;;;;17.79;62.42;98381.47;5052387;28;20566;-77
2023/07/26 10:35:26;;;;;;;5.60;2.03;;;;;;;17.73;60.81;98380.00;5046408;28;20088;-78
2023/07/26 10:37:51;;;;;;;2.63;1.95;;;;;;;17.82;61.31;98375.44;5062436;28;20033;-78
2023/07/26 10:40:36;;;;;;;4.03;2.03;;;;;;;17.89;59.93;98381.22;5029234;28;20021;-76
2023/07/26 10:43:20;;;;;;;2.35;1.88;;;;;;;17.96;59.40;98370.78;5046521;28;20037;-76
2023/07/26 10:45:49;;;;;;;3.00;1.52;;;;;;;18.10;58.97;98372.63;5048026;28;20068;-77
2023/07/26 10:48:40;;;;;;;3.10;2.10;;;;;;;18.05;58.06;98380.84;5041614;28;20029;-77
2023/07/26 10:51:31;;;;;;;2.28;1.95;;;;;;;18.35;58.36;98380.88;5050139;28;20108;-77
2023/07/26 10:53:58;;;;;;;3.15;2.13;;;;;;;18.47;58.01;98364.13;5047700;28;20071;-77
2023/07/26 10:56:34;;;;;;;3.40;2.22;;;;;;;18.50;58.28;98369.69;5047928;28;20678;-78
2023/07/26 10:59:02;;;;;;;1.77;1.67;;;;;;;18.56;57.69;98373.06;5048848;28;20025;-76
2023/07/26 11:01:33;;;;;;;2.67;1.98;;;;;;;18.60;57.90;98368.63;5051240;28;20064;-78
2023/07/26 11:03:59;;;;;;;2.17;2.00;;;;;;;18.72;57.72;98360.72;5046463;28;20041;-77
2023/07/26 11:06:57;;;;;;;2.10;1.90;;;;;;;18.78;57.97;98361.38;5046676;28;20024;-77
2023/07/26 11:09:27;;;;;;;3.28;2.47;;;;;;;18.88;57.47;98356.47;5041922;28;20025;-77
2023/07/26 11:11:55;;;;;;;4.45;2.55;;;;;;;18.83;57.34;98363.94;5035366;28;20375;-77
2023/07/26 11:14:20;;;;;;;4.32;2.63;;;;;;;19.00;56.14;98351.25;5043164;28;20358;-78
2023/07/26 11:16:45;;;;;;;3.38;2.42;;;;;;;19.00;56.90;98355.88;5036908;28;20025;-76
2023/07/26 11:19:11;;;;;;;4.30;2.50;;;;;;;19.15;55.75;98353.53;5041418;28;20040;-78
2023/07/26 11:21:36;;;;;;;4.10;2.60;;;;;;;18.81;54.87;98358.03;5030912;28;20036;-78
2023/07/26 11:24:02;;;;;;;6.65;2.45;;;;;;;18.89;55.56;98343.75;5004567;28;20033;-77
2023/07/26 11:26:27;;;;;;;6.60;2.92;;;;;;;19.05;54.94;98351.09;5029287;28;20381;-76
2023/07/26 11:28:57;;;;;;;5.90;2.70;;;;;;;19.16;53.35;98347.00;5039023;28;20157;-78
2023/07/26 11:31:22;;;;;;;8.00;3.08;;;;;;;19.16;53.57;98357.00;5047688;28;20049;-78